Flight Track Log - Related Links

Times and Time Zones

All times are in EDT time to prevent confusion due to time zone crossing. See the N328AJ flight status page for this flight to view local times or setup timezone preferences in your user account.

Time Position Orientation Groundspeed Altitude Reporting Facility
EDT Latitude Longitude Course Direction KTS MPH feet Rate Location/Type
Mon 02:25:13 PM 26.4294 -81.7783 173° South 214 246 3,400  Level Miami Center
Mon 02:26:15 PM 26.3633 -81.7578 164° South 228 262 5,000 1,500 Climbing Miami Center
Mon 02:27:17 PM 26.3006 -81.7408 166° South 230 265 6,500 1,452 Climbing Miami Center
Mon 02:28:19 PM 26.2342 -81.7217 165° South 230 265 8,000 1,306 Climbing Miami Center
Mon 02:29:00 PM 26.2133 -81.6805 173° South  Level FlightAware Approximate
Mon 02:29:21 PM 26.1697 -81.7036 166° South 239 275 9,200  Level Miami Center
Mon 02:30:00 PM 26.1482 -81.6712 173° South  Level FlightAware Approximate
Mon 02:30:23 PM 26.0989 -81.6831 165° South 243 280 10,600  Level Miami Center
Mon 02:31:24 PM 26.0314 -81.6650 166° South 249 287 11,100 244 Climbing Miami Center
Mon 02:32:26 PM 25.9500 -81.6406 165° South 279 321 11,100  Level Miami Center
Mon 02:33:28 PM 25.8744 -81.6192 166° South 282 325 11,100  Level Miami Center
Mon 02:34:30 PM 25.7917 -81.5961 166° South 285 328 11,100  Level Miami Center
Mon 02:35:32 PM 25.7161 -81.5739 165° South 285 328 11,100 -97 Level Miami Center
Mon 02:36:34 PM 25.6464 -81.5558 167° South 285 328 10,900 -97 Descending Miami Center
Mon 02:37:36 PM 25.5556 -81.5297 165° South 284 327 10,900 -194 Level Miami Center
Mon 02:38:38 PM 25.4769 -81.5189 173° South 285 328 10,500 -387 Descending Miami Center
Mon 02:39:40 PM 25.4017 -81.5375 193° South 297 342 10,100 -435 Descending Miami Center
Mon 02:40:42 PM 25.3225 -81.5594 194° South 297 342 9,600 -532 Descending Miami Center
Mon 02:41:44 PM 25.2247 -81.5847 193° South 297 342 9,000 -585 Descending Miami Center
Mon 02:42:45 PM 25.1450 -81.6056 193° South 297 342 8,400 -537 Descending Miami Center
Mon 02:43:47 PM 25.0664 -81.6269 194° South 296 341 7,900 -242 Descending Miami Center
Mon 02:44:49 PM 24.9886 -81.6464 193° South 292 336 7,900  Level Miami Center
Mon 02:45:51 PM 24.9144 -81.6661 194° South 280 322 7,900 -97 Level Miami Center
Mon 02:46:53 PM 24.8400 -81.6853 193° South 278 320 7,700 -927 Descending Miami Center
Mon 02:47:54 PM 24.7625 -81.7067 194° South 282 325 6,000 -1,902 Descending Miami Center
Mon 02:48:56 PM 24.6728 -81.7369 197° South 283 326 3,800 -2,129 Descending Miami Center
Mon 02:49:58 PM 24.6150 -81.7839 216° Southwest 276 318 1,600 -1,065 Descending Miami Center
Mon 02:51:00 PM 24.5789 -81.8350 232° Southwest 239 275 1,600 -435 Level Miami Center
Mon 02:52:02 PM 24.5553 -81.8033 129° Southeast 198 228 700 -726 Descending Miami Center
Mon 02:53:04 PM 24.5564 -81.7564 88° East 169 194 100 -581 Descending Miami Center

Login

Don't have an account? Register now (free) for customized features, flight alerts, and more!